sensor_id;sensor_type;location;lat;lon;timestamp;P1;durP1;ratioP1;P2;durP2;ratioP2
25946;SDS011;13745;51.470;9.894;2023-02-01T00:01:16;12.80;;;2.13;;
25946;SDS011;13745;51.470;9.894;2023-02-01T00:04:01;17.88;;;2.75;;
25946;SDS011;13745;51.470;9.894;2023-02-01T00:06:47;22.73;;;2.65;;
25946;SDS011;13745;51.470;9.894;2023-02-01T00:09:32;19.45;;;2.67;;
25946;SDS011;13745;51.470;9.894;2023-02-01T00:12:17;17.65;;;2.75;;
25946;SDS011;13745;51.470;9.894;2023-02-01T00:15:03;13.80;;;2.88;;
25946;SDS011;13745;51.470;9.894;2023-02-01T00:17:52;16.52;;;2.15;;
25946;SDS011;13745;51.470;9.894;2023-02-01T00:20:38;17.08;;;3.70;;
25946;SDS011;13745;51.470;9.894;2023-02-01T00:23:24;20.88;;;2.63;;
25946;SDS011;13745;51.470;9.894;2023-02-01T00:26:11;15.35;;;3.13;;
25946;SDS011;13745;51.470;9.894;2023-02-01T00:28:59;21.65;;;2.92;;
25946;SDS011;13745;51.470;9.894;2023-02-01T00:31:45;14.68;;;2.63;;
25946;SDS011;13745;51.470;9.894;2023-02-01T00:34:31;26.83;;;4.72;;
25946;SDS011;13745;51.470;9.894;2023-02-01T00:37:16;21.75;;;3.53;;
25946;SDS011;13745;51.470;9.894;2023-02-01T00:40:02;22.23;;;2.88;;
25946;SDS011;13745;51.470;9.894;2023-02-01T00:42:48;16.60;;;2.60;;
25946;SDS011;13745;51.470;9.894;2023-02-01T00:45:33;13.25;;;2.20;;
25946;SDS011;13745;51.470;9.894;2023-02-01T00:48:18;16.90;;;3.70;;
25946;SDS011;13745;51.470;9.894;2023-02-01T00:51:04;12.15;;;3.13;;
25946;SDS011;13745;51.470;9.894;2023-02-01T00:53:50;23.90;;;3.08;;
25946;SDS011;13745;51.470;9.894;2023-02-01T00:56:37;20.60;;;3.15;;
25946;SDS011;13745;51.470;9.894;2023-02-01T00:59:22;17.75;;;3.40;;
25946;SDS011;13745;51.470;9.894;2023-02-01T01:02:07;16.80;;;3.72;;
25946;SDS011;13745;51.470;9.894;2023-02-01T01:04:52;16.40;;;2.97;;
25946;SDS011;13745;51.470;9.894;2023-02-01T01:07:37;13.05;;;2.95;;
25946;SDS011;13745;51.470;9.894;2023-02-01T01:10:23;13.18;;;3.00;;
25946;SDS011;13745;51.470;9.894;2023-02-01T01:13:09;18.90;;;2.63;;
25946;SDS011;13745;51.470;9.894;2023-02-01T01:15:55;21.55;;;3.00;;
25946;SDS011;13745;51.470;9.894;2023-02-01T01:18:40;17.08;;;3.00;;
25946;SDS011;13745;51.470;9.894;2023-02-01T01:21:26;10.57;;;2.50;;
25946;SDS011;13745;51.470;9.894;2023-02-01T01:24:11;18.58;;;3.03;;
25946;SDS011;13745;51.470;9.894;2023-02-01T01:26:57;14.57;;;2.53;;
25946;SDS011;13745;51.470;9.894;2023-02-01T01:29:44;20.00;;;3.10;;
25946;SDS011;13745;51.470;9.894;2023-02-01T01:32:29;17.35;;;2.28;;
25946;SDS011;13745;51.470;9.894;2023-02-01T01:35:14;17.65;;;3.33;;
25946;SDS011;13745;51.470;9.894;2023-02-01T01:37:59;14.85;;;3.42;;
25946;SDS011;13745;51.470;9.894;2023-02-01T01:40:46;19.45;;;3.45;;
25946;SDS011;13745;51.470;9.894;2023-02-01T01:43:47;15.60;;;2.75;;
25946;SDS011;13745;51.470;9.894;2023-02-01T01:46:37;14.75;;;2.50;;
25946;SDS011;13745;51.470;9.894;2023-02-01T01:49:24;19.15;;;2.83;;
25946;SDS011;13745;51.470;9.894;2023-02-01T01:52:11;20.40;;;3.13;;
25946;SDS011;13745;51.470;9.894;2023-02-01T01:54:56;18.65;;;2.95;;
25946;SDS011;13745;51.470;9.894;2023-02-01T01:57:44;13.13;;;2.47;;
25946;SDS011;13745;51.470;9.894;2023-02-01T02:00:35;16.98;;;2.78;;
25946;SDS011;13745;51.470;9.894;2023-02-01T02:03:22;14.55;;;2.60;;
25946;SDS011;13745;51.470;9.894;2023-02-01T02:06:11;14.20;;;2.70;;
25946;SDS011;13745;51.470;9.894;2023-02-01T02:09:02;16.15;;;2.63;;
25946;SDS011;13745;51.470;9.894;2023-02-01T02:11:47;17.80;;;2.75;;
25946;SDS011;13745;51.470;9.894;2023-02-01T02:14:32;15.35;;;2.60;;
25946;SDS011;13745;51.470;9.894;2023-02-01T02:17:23;19.67;;;2.28;;
25946;SDS011;13745;51.470;9.894;2023-02-01T02:33:42;16.92;;;2.40;;
25946;SDS011;13745;51.470;9.894;2023-02-01T02:36:44;7.82;;;1.90;;
25946;SDS011;13745;51.470;9.894;2023-02-01T02:39:40;15.80;;;4.20;;
25946;SDS011;13745;51.470;9.894;2023-02-01T02:42:36;12.60;;;3.15;;
25946;SDS011;13745;51.470;9.894;2023-02-01T02:45:47;17.80;;;2.55;;
25946;SDS011;13745;51.470;9.894;2023-02-01T02:48:58;10.35;;;2.17;;
25946;SDS011;13745;51.470;9.894;2023-02-01T02:51:49;14.40;;;2.03;;
25946;SDS011;13745;51.470;9.894;2023-02-01T02:54:55;15.55;;;2.50;;
25946;SDS011;13745;51.470;9.894;2023-02-01T02:57:42;22.58;;;2.97;;
25946;SDS011;13745;51.470;9.894;2023-02-01T03:00:46;16.85;;;2.55;;
25946;SDS011;13745;51.470;9.894;2023-02-01T03:03:50;26.38;;;5.18;;
25946;SDS011;13745;51.470;9.894;2023-02-01T03:06:55;19.90;;;2.17;;
25946;SDS011;13745;51.470;9.894;2023-02-01T03:09:40;18.70;;;3.22;;
25946;SDS011;13745;51.470;9.894;2023-02-01T03:12:30;13.65;;;2.60;;
25946;SDS011;13745;51.470;9.894;2023-02-01T03:15:42;12.82;;;3.13;;
25946;SDS011;13745;51.470;9.894;2023-02-01T03:18:36;23.73;;;3.53;;
25946;SDS011;13745;51.470;9.894;2023-02-01T03:21:29;13.20;;;3.20;;
25946;SDS011;13745;51.470;9.894;2023-02-01T03:24:22;18.85;;;5.20;;
25946;SDS011;13745;51.470;9.894;2023-02-01T03:27:18;13.07;;;2.95;;
25946;SDS011;13745;51.470;9.894;2023-02-01T03:30:08;21.48;;;4.03;;
25946;SDS011;13745;51.470;9.894;2023-02-01T03:32:56;18.92;;;3.22;;
25946;SDS011;13745;51.470;9.894;2023-02-01T03:35:51;15.70;;;3.30;;
25946;SDS011;13745;51.470;9.894;2023-02-01T03:38:43;12.77;;;3.67;;
25946;SDS011;13745;51.470;9.894;2023-02-01T03:41:40;12.10;;;3.55;;
25946;SDS011;13745;51.470;9.894;2023-02-01T03:44:28;17.88;;;3.03;;
25946;SDS011;13745;51.470;9.894;2023-02-01T03:47:16;15.73;;;2.97;;
25946;SDS011;13745;51.470;9.894;2023-02-01T03:50:09;14.45;;;2.80;;
25946;SDS011;13745;51.470;9.894;2023-02-01T03:52:58;18.08;;;3.08;;
25946;SDS011;13745;51.470;9.894;2023-02-01T03:55:48;18.83;;;4.07;;
25946;SDS011;13745;51.470;9.894;2023-02-01T03:58:37;12.73;;;2.80;;
25946;SDS011;13745;51.470;9.894;2023-02-01T04:01:24;21.80;;;3.25;;
25946;SDS011;13745;51.470;9.894;2023-02-01T04:04:10;24.63;;;2.90;;
25946;SDS011;13745;51.470;9.894;2023-02-01T04:07:04;19.20;;;3.25;;
25946;SDS011;13745;51.470;9.894;2023-02-01T04:09:50;18.27;;;3.17;;
25946;SDS011;13745;51.470;9.894;2023-02-01T04:12:35;15.75;;;3.47;;
25946;SDS011;13745;51.470;9.894;2023-02-01T04:15:21;15.10;;;2.78;;
25946;SDS011;13745;51.470;9.894;2023-02-01T04:18:07;14.13;;;3.20;;
25946;SDS011;13745;51.470;9.894;2023-02-01T04:20:51;14.00;;;2.88;;
25946;SDS011;13745;51.470;9.894;2023-02-01T04:23:36;15.38;;;2.58;;
25946;SDS011;13745;51.470;9.894;2023-02-01T04:26:21;9.57;;;2.78;;
25946;SDS011;13745;51.470;9.894;2023-02-01T04:29:07;10.80;;;2.25;;
25946;SDS011;13745;51.470;9.894;2023-02-01T04:31:54;15.80;;;2.97;;
25946;SDS011;13745;51.470;9.894;2023-02-01T04:34:39;21.30;;;3.75;;
25946;SDS011;13745;51.470;9.894;2023-02-01T04:37:24;13.93;;;2.45;;
25946;SDS011;13745;51.470;9.894;2023-02-01T04:40:10;9.85;;;2.25;;
25946;SDS011;13745;51.470;9.894;2023-02-01T04:42:56;16.90;;;3.05;;
25946;SDS011;13745;51.470;9.894;2023-02-01T04:45:41;18.77;;;2.65;;
25946;SDS011;13745;51.470;9.894;2023-02-01T04:48:27;14.40;;;2.05;;
25946;SDS011;13745;51.470;9.894;2023-02-01T04:51:13;13.57;;;2.55;;
25946;SDS011;13745;51.470;9.894;2023-02-01T04:53:58;20.17;;;3.05;;
25946;SDS011;13745;51.470;9.894;2023-02-01T04:56:43;17.02;;;3.90;;
25946;SDS011;13745;51.470;9.894;2023-02-01T04:59:28;20.55;;;2.80;;
25946;SDS011;13745;51.470;9.894;2023-02-01T05:02:13;10.55;;;2.03;;
25946;SDS011;13745;51.470;9.894;2023-02-01T05:04:59;20.70;;;2.42;;
25946;SDS011;13745;51.470;9.894;2023-02-01T05:07:45;13.40;;;2.90;;
25946;SDS011;13745;51.470;9.894;2023-02-01T05:10:30;22.30;;;3.22;;
25946;SDS011;13745;51.470;9.894;2023-02-01T05:13:15;14.18;;;2.10;;
25946;SDS011;13745;51.470;9.894;2023-02-01T05:16:18;11.00;;;1.83;;
25946;SDS011;13745;51.470;9.894;2023-02-01T05:19:03;11.77;;;2.45;;
25946;SDS011;13745;51.470;9.894;2023-02-01T05:21:49;19.15;;;3.28;;
25946;SDS011;13745;51.470;9.894;2023-02-01T05:24:34;16.02;;;2.58;;
25946;SDS011;13745;51.470;9.894;2023-02-01T05:27:19;18.63;;;3.10;;
25946;SDS011;13745;51.470;9.894;2023-02-01T05:30:05;16.60;;;2.47;;
25946;SDS011;13745;51.470;9.894;2023-02-01T05:32:52;15.82;;;3.58;;
25946;SDS011;13745;51.470;9.894;2023-02-01T05:35:38;17.00;;;2.90;;
25946;SDS011;13745;51.470;9.894;2023-02-01T05:38:24;9.18;;;2.20;;
25946;SDS011;13745;51.470;9.894;2023-02-01T05:41:09;12.07;;;2.35;;
25946;SDS011;13745;51.470;9.894;2023-02-01T05:43:54;10.43;;;2.15;;
25946;SDS011;13745;51.470;9.894;2023-02-01T05:46:40;13.55;;;3.20;;
25946;SDS011;13745;51.470;9.894;2023-02-01T05:49:25;16.35;;;3.05;;
25946;SDS011;13745;51.470;9.894;2023-02-01T05:52:10;13.25;;;2.65;;
25946;SDS011;13745;51.470;9.894;2023-02-01T05:54:56;11.10;;;3.00;;
25946;SDS011;13745;51.470;9.894;2023-02-01T05:57:41;9.25;;;2.63;;
25946;SDS011;13745;51.470;9.894;2023-02-01T06:00:26;19.35;;;3.65;;
25946;SDS011;13745;51.470;9.894;2023-02-01T06:03:11;11.05;;;2.70;;
25946;SDS011;13745;51.470;9.894;2023-02-01T06:05:56;15.73;;;2.47;;
25946;SDS011;13745;51.470;9.894;2023-02-01T06:08:41;12.05;;;3.15;;
25946;SDS011;13745;51.470;9.894;2023-02-01T06:11:28;16.83;;;2.72;;
25946;SDS011;13745;51.470;9.894;2023-02-01T06:14:14;11.80;;;3.20;;
25946;SDS011;13745;51.470;9.894;2023-02-01T06:16:59;13.05;;;2.72;;
25946;SDS011;13745;51.470;9.894;2023-02-01T06:19:44;11.77;;;2.42;;
25946;SDS011;13745;51.470;9.894;2023-02-01T06:22:31;12.63;;;2.65;;
25946;SDS011;13745;51.470;9.894;2023-02-01T06:25:17;18.05;;;2.97;;
25946;SDS011;13745;51.470;9.894;2023-02-01T06:28:03;12.75;;;2.63;;
25946;SDS011;13745;51.470;9.894;2023-02-01T06:30:49;19.20;;;4.30;;
25946;SDS011;13745;51.470;9.894;2023-02-01T06:33:35;11.30;;;2.92;;
25946;SDS011;13745;51.470;9.894;2023-02-01T06:36:20;12.45;;;3.00;;
25946;SDS011;13745;51.470;9.894;2023-02-01T06:39:06;15.38;;;3.25;;
25946;SDS011;13745;51.470;9.894;2023-02-01T06:41:50;15.45;;;3.30;;
25946;SDS011;13745;51.470;9.894;2023-02-01T06:44:37;14.00;;;2.38;;
25946;SDS011;13745;51.470;9.894;2023-02-01T06:47:22;11.55;;;2.45;;
25946;SDS011;13745;51.470;9.894;2023-02-01T06:50:07;8.63;;;2.63;;
25946;SDS011;13745;51.470;9.894;2023-02-01T06:52:53;11.50;;;2.28;;
25946;SDS011;13745;51.470;9.894;2023-02-01T06:55:39;12.60;;;2.50;;
25946;SDS011;13745;51.470;9.894;2023-02-01T06:58:27;11.38;;;2.67;;
25946;SDS011;13745;51.470;9.894;2023-02-01T07:01:14;13.18;;;3.03;;
25946;SDS011;13745;51.470;9.894;2023-02-01T07:04:00;17.52;;;3.20;;
25946;SDS011;13745;51.470;9.894;2023-02-01T07:06:45;12.80;;;3.13;;
25946;SDS011;13745;51.470;9.894;2023-02-01T07:09:30;7.88;;;2.75;;
25946;SDS011;13745;51.470;9.894;2023-02-01T07:12:15;16.25;;;2.70;;
25946;SDS011;13745;51.470;9.894;2023-02-01T07:15:00;8.20;;;2.20;;
25946;SDS011;13745;51.470;9.894;2023-02-01T07:17:47;10.02;;;2.63;;
25946;SDS011;13745;51.470;9.894;2023-02-01T07:20:32;12.15;;;3.13;;
25946;SDS011;13745;51.470;9.894;2023-02-01T07:23:18;14.88;;;2.60;;
25946;SDS011;13745;51.470;9.894;2023-02-01T07:26:04;17.40;;;2.75;;
25946;SDS011;13745;51.470;9.894;2023-02-01T07:28:51;15.63;;;4.00;;
25946;SDS011;13745;51.470;9.894;2023-02-01T07:31:35;21.55;;;3.75;;
25946;SDS011;13745;51.470;9.894;2023-02-01T07:34:22;19.73;;;3.85;;
25946;SDS011;13745;51.470;9.894;2023-02-01T07:37:07;16.38;;;3.55;;
25946;SDS011;13745;51.470;9.894;2023-02-01T07:39:52;17.02;;;3.83;;
25946;SDS011;13745;51.470;9.894;2023-02-01T07:42:38;16.83;;;3.63;;
25946;SDS011;13745;51.470;9.894;2023-02-01T07:45:23;18.33;;;3.30;;
25946;SDS011;13745;51.470;9.894;2023-02-01T07:48:09;11.13;;;2.85;;
25946;SDS011;13745;51.470;9.894;2023-02-01T07:50:58;11.02;;;3.35;;
25946;SDS011;13745;51.470;9.894;2023-02-01T07:53:44;16.65;;;4.80;;
25946;SDS011;13745;51.470;9.894;2023-02-01T07:56:29;19.73;;;3.97;;
25946;SDS011;13745;51.470;9.894;2023-02-01T07:59:14;17.13;;;3.28;;
25946;SDS011;13745;51.470;9.894;2023-02-01T08:01:59;17.40;;;3.58;;
25946;SDS011;13745;51.470;9.894;2023-02-01T08:04:43;13.35;;;4.07;;
25946;SDS011;13745;51.470;9.894;2023-02-01T08:07:30;14.77;;;4.03;;
25946;SDS011;13745;51.470;9.894;2023-02-01T08:10:15;15.23;;;3.90;;
25946;SDS011;13745;51.470;9.894;2023-02-01T08:13:01;20.30;;;3.25;;
25946;SDS011;13745;51.470;9.894;2023-02-01T08:15:47;17.63;;;3.63;;
25946;SDS011;13745;51.470;9.894;2023-02-01T08:18:32;12.77;;;3.78;;
25946;SDS011;13745;51.470;9.894;2023-02-01T08:21:18;12.90;;;3.35;;
25946;SDS011;13745;51.470;9.894;2023-02-01T08:24:07;12.13;;;3.67;;
25946;SDS011;13745;51.470;9.894;2023-02-01T08:26:54;15.38;;;3.22;;
25946;SDS011;13745;51.470;9.894;2023-02-01T08:29:39;20.27;;;3.90;;
25946;SDS011;13745;51.470;9.894;2023-02-01T08:32:24;15.52;;;3.25;;
25946;SDS011;13745;51.470;9.894;2023-02-01T08:35:09;19.13;;;4.05;;
25946;SDS011;13745;51.470;9.894;2023-02-01T08:37:54;9.40;;;2.75;;
25946;SDS011;13745;51.470;9.894;2023-02-01T08:40:41;8.40;;;3.08;;
25946;SDS011;13745;51.470;9.894;2023-02-01T08:43:26;12.93;;;3.13;;
25946;SDS011;13745;51.470;9.894;2023-02-01T08:46:11;15.88;;;3.65;;
25946;SDS011;13745;51.470;9.894;2023-02-01T08:48:56;14.95;;;3.67;;
25946;SDS011;13745;51.470;9.894;2023-02-01T08:51:42;14.00;;;3.90;;
25946;SDS011;13745;51.470;9.894;2023-02-01T08:54:27;12.95;;;3.47;;
25946;SDS011;13745;51.470;9.894;2023-02-01T08:57:13;13.55;;;3.67;;
25946;SDS011;13745;51.470;9.894;2023-02-01T08:59:58;14.65;;;4.13;;
25946;SDS011;13745;51.470;9.894;2023-02-01T09:02:44;16.45;;;4.15;;
25946;SDS011;13745;51.470;9.894;2023-02-01T09:05:30;12.05;;;3.38;;
25946;SDS011;13745;51.470;9.894;2023-02-01T09:08:15;13.73;;;3.92;;
25946;SDS011;13745;51.470;9.894;2023-02-01T09:11:03;12.07;;;3.67;;
25946;SDS011;13745;51.470;9.894;2023-02-01T09:13:51;15.00;;;3.20;;
25946;SDS011;13745;51.470;9.894;2023-02-01T09:16:36;17.33;;;3.13;;
25946;SDS011;13745;51.470;9.894;2023-02-01T09:19:21;17.25;;;3.40;;
25946;SDS011;13745;51.470;9.894;2023-02-01T09:22:06;19.73;;;3.28;;
25946;SDS011;13745;51.470;9.894;2023-02-01T09:24:52;9.85;;;2.95;;
25946;SDS011;13745;51.470;9.894;2023-02-01T09:27:37;16.33;;;3.08;;
25946;SDS011;13745;51.470;9.894;2023-02-01T09:30:23;15.05;;;3.38;;
25946;SDS011;13745;51.470;9.894;2023-02-01T09:33:09;18.98;;;3.55;;
25946;SDS011;13745;51.470;9.894;2023-02-01T09:35:57;13.32;;;5.18;;
25946;SDS011;13745;51.470;9.894;2023-02-01T09:38:43;10.23;;;3.58;;
25946;SDS011;13745;51.470;9.894;2023-02-01T09:41:32;16.38;;;3.15;;
25946;SDS011;13745;51.470;9.894;2023-02-01T09:44:36;9.63;;;2.83;;
25946;SDS011;13745;51.470;9.894;2023-02-01T09:47:36;22.80;;;3.20;;
25946;SDS011;13745;51.470;9.894;2023-02-01T09:50:33;14.07;;;2.92;;
25946;SDS011;13745;51.470;9.894;2023-02-01T09:53:21;7.65;;;2.40;;
25946;SDS011;13745;51.470;9.894;2023-02-01T09:56:12;10.85;;;3.35;;
25946;SDS011;13745;51.470;9.894;2023-02-01T09:59:04;10.15;;;2.92;;
25946;SDS011;13745;51.470;9.894;2023-02-01T10:01:55;11.63;;;2.83;;
25946;SDS011;13745;51.470;9.894;2023-02-01T10:04:44;15.88;;;2.70;;
25946;SDS011;13745;51.470;9.894;2023-02-01T10:07:31;11.63;;;3.72;;
25946;SDS011;13745;51.470;9.894;2023-02-01T10:10:23;20.40;;;4.65;;
25946;SDS011;13745;51.470;9.894;2023-02-01T10:13:22;9.20;;;3.65;;
25946;SDS011;13745;51.470;9.894;2023-02-01T10:16:22;14.20;;;2.40;;
25946;SDS011;13745;51.470;9.894;2023-02-01T10:19:20;10.18;;;1.80;;
25946;SDS011;13745;51.470;9.894;2023-02-01T10:22:21;11.73;;;2.08;;
25946;SDS011;13745;51.470;9.894;2023-02-01T10:25:17;6.63;;;1.48;;
25946;SDS011;13745;51.470;9.894;2023-02-01T10:28:11;10.00;;;1.92;;
25946;SDS011;13745;51.470;9.894;2023-02-01T10:31:01;8.65;;;2.78;;
25946;SDS011;13745;51.470;9.894;2023-02-01T10:33:47;13.38;;;2.42;;
25946;SDS011;13745;51.470;9.894;2023-02-01T10:36:35;11.85;;;2.53;;
25946;SDS011;13745;51.470;9.894;2023-02-01T10:39:25;15.70;;;2.97;;
25946;SDS011;13745;51.470;9.894;2023-02-01T10:42:11;10.45;;;3.17;;
25946;SDS011;13745;51.470;9.894;2023-02-01T10:44:57;8.45;;;2.30;;
25946;SDS011;13745;51.470;9.894;2023-02-01T10:47:47;13.88;;;3.58;;
25946;SDS011;13745;51.470;9.894;2023-02-01T10:50:35;13.45;;;2.42;;
25946;SDS011;13745;51.470;9.894;2023-02-01T10:53:25;16.15;;;2.42;;
25946;SDS011;13745;51.470;9.894;2023-02-01T10:56:21;12.20;;;2.00;;
25946;SDS011;13745;51.470;9.894;2023-02-01T10:59:14;10.55;;;2.35;;
25946;SDS011;13745;51.470;9.894;2023-02-01T11:02:02;12.38;;;2.17;;
25946;SDS011;13745;51.470;9.894;2023-02-01T11:05:01;9.55;;;2.78;;
25946;SDS011;13745;51.470;9.894;2023-02-01T11:07:48;7.10;;;2.38;;
25946;SDS011;13745;51.470;9.894;2023-02-01T11:10:36;11.27;;;2.15;;
25946;SDS011;13745;51.470;9.894;2023-02-01T11:13:27;6.47;;;1.67;;
25946;SDS011;13745;51.470;9.894;2023-02-01T11:16:14;8.15;;;2.17;;
25946;SDS011;13745;51.470;9.894;2023-02-01T11:18:59;8.95;;;2.92;;
25946;SDS011;13745;51.470;9.894;2023-02-01T11:21:45;9.93;;;2.13;;
25946;SDS011;13745;51.470;9.894;2023-02-01T11:24:35;11.93;;;2.08;;
25946;SDS011;13745;51.470;9.894;2023-02-01T11:27:23;6.38;;;1.58;;
25946;SDS011;13745;51.470;9.894;2023-02-01T11:30:14;6.88;;;1.52;;
25946;SDS011;13745;51.470;9.894;2023-02-01T11:33:01;5.78;;;1.50;;
25946;SDS011;13745;51.470;9.894;2023-02-01T11:35:49;10.27;;;2.10;;
25946;SDS011;13745;51.470;9.894;2023-02-01T11:38:35;11.23;;;2.65;;
25946;SDS011;13745;51.470;9.894;2023-02-01T11:41:21;8.90;;;1.88;;
25946;SDS011;13745;51.470;9.894;2023-02-01T11:44:19;10.05;;;2.60;;
25946;SDS011;13745;51.470;9.894;2023-02-01T11:47:18;10.50;;;1.67;;
25946;SDS011;13745;51.470;9.894;2023-02-01T11:50:08;7.82;;;2.20;;
25946;SDS011;13745;51.470;9.894;2023-02-01T11:53:06;16.60;;;3.00;;
25946;SDS011;13745;51.470;9.894;2023-02-01T11:56:06;7.43;;;2.10;;
25946;SDS011;13745;51.470;9.894;2023-02-01T11:59:02;11.40;;;2.47;;
25946;SDS011;13745;51.470;9.894;2023-02-01T12:02:01;11.38;;;3.22;;
25946;SDS011;13745;51.470;9.894;2023-02-01T12:05:10;12.73;;;3.15;;
25946;SDS011;13745;51.470;9.894;2023-02-01T12:08:15;7.38;;;2.15;;
25946;SDS011;13745;51.470;9.894;2023-02-01T12:11:22;11.73;;;3.58;;
25946;SDS011;13745;51.470;9.894;2023-02-01T12:14:24;10.27;;;2.40;;
25946;SDS011;13745;51.470;9.894;2023-02-01T12:17:30;10.32;;;2.65;;
25946;SDS011;13745;51.470;9.894;2023-02-01T12:20:54;10.32;;;2.78;;
25946;SDS011;13745;51.470;9.894;2023-02-01T12:24:07;10.50;;;2.65;;
25946;SDS011;13745;51.470;9.894;2023-02-01T12:27:16;10.63;;;3.20;;
25946;SDS011;13745;51.470;9.894;2023-02-01T12:30:30;10.90;;;2.67;;
25946;SDS011;13745;51.470;9.894;2023-02-01T12:33:28;12.82;;;3.22;;
25946;SDS011;13745;51.470;9.894;2023-02-01T12:36:26;12.43;;;2.63;;
25946;SDS011;13745;51.470;9.894;2023-02-01T12:39:22;9.32;;;2.80;;
25946;SDS011;13745;51.470;9.894;2023-02-01T12:42:09;16.63;;;3.80;;
25946;SDS011;13745;51.470;9.894;2023-02-01T12:45:00;5.32;;;2.45;;
25946;SDS011;13745;51.470;9.894;2023-02-01T12:47:52;10.43;;;2.75;;
25946;SDS011;13745;51.470;9.894;2023-02-01T12:50:43;7.40;;;2.60;;
25946;SDS011;13745;51.470;9.894;2023-02-01T12:53:35;7.75;;;2.28;;
25946;SDS011;13745;51.470;9.894;2023-02-01T12:56:29;13.63;;;2.78;;
25946;SDS011;13745;51.470;9.894;2023-02-01T12:59:21;9.55;;;4.25;;
25946;SDS011;13745;51.470;9.894;2023-02-01T13:02:12;9.18;;;2.53;;
25946;SDS011;13745;51.470;9.894;2023-02-01T13:05:03;10.18;;;3.08;;
25946;SDS011;13745;51.470;9.894;2023-02-01T13:07:57;8.40;;;2.60;;
25946;SDS011;13745;51.470;9.894;2023-02-01T13:10:47;9.40;;;2.88;;
25946;SDS011;13745;51.470;9.894;2023-02-01T13:13:36;11.20;;;2.35;;
25946;SDS011;13745;51.470;9.894;2023-02-01T13:16:32;10.18;;;2.60;;
25946;SDS011;13745;51.470;9.894;2023-02-01T13:19:20;8.73;;;2.60;;
25946;SDS011;13745;51.470;9.894;2023-02-01T13:22:11;7.10;;;2.30;;
25946;SDS011;13745;51.470;9.894;2023-02-01T13:25:00;6.20;;;2.40;;
25946;SDS011;13745;51.470;9.894;2023-02-01T13:27:50;7.15;;;1.80;;
25946;SDS011;13745;51.470;9.894;2023-02-01T13:30:45;7.78;;;2.47;;
25946;SDS011;13745;51.470;9.894;2023-02-01T13:33:46;10.60;;;2.58;;
25946;SDS011;13745;51.470;9.894;2023-02-01T13:36:43;8.02;;;2.90;;
25946;SDS011;13745;51.470;9.894;2023-02-01T13:39:54;10.02;;;2.70;;
25946;SDS011;13745;51.470;9.894;2023-02-01T13:42:51;6.85;;;1.92;;
25946;SDS011;13745;51.470;9.894;2023-02-01T13:45:42;7.18;;;2.00;;
25946;SDS011;13745;51.470;9.894;2023-02-01T13:48:33;7.72;;;1.77;;
25946;SDS011;13745;51.470;9.894;2023-02-01T13:51:35;7.97;;;2.22;;
25946;SDS011;13745;51.470;9.894;2023-02-01T13:54:23;9.27;;;2.72;;
25946;SDS011;13745;51.470;9.894;2023-02-01T13:57:14;5.75;;;2.10;;
25946;SDS011;13745;51.470;9.894;2023-02-01T14:00:25;8.43;;;2.22;;
25946;SDS011;13745;51.470;9.894;2023-02-01T14:03:18;5.95;;;1.92;;
25946;SDS011;13745;51.470;9.894;2023-02-01T14:06:14;10.40;;;2.17;;
25946;SDS011;13745;51.470;9.894;2023-02-01T14:09:12;5.43;;;1.80;;
25946;SDS011;13745;51.470;9.894;2023-02-01T14:15:27;6.82;;;1.95;;
25946;SDS011;13745;51.470;9.894;2023-02-01T14:21:32;6.30;;;2.25;;
25946;SDS011;13745;51.470;9.894;2023-02-01T14:24:22;6.68;;;2.42;;
25946;SDS011;13745;51.470;9.894;2023-02-01T14:27:14;6.22;;;2.38;;
25946;SDS011;13745;51.470;9.894;2023-02-01T14:30:05;7.13;;;1.90;;
25946;SDS011;13745;51.470;9.894;2023-02-01T14:32:53;7.22;;;1.75;;
25946;SDS011;13745;51.470;9.894;2023-02-01T14:35:39;7.15;;;1.65;;
25946;SDS011;13745;51.470;9.894;2023-02-01T14:38:24;10.02;;;2.10;;
25946;SDS011;13745;51.470;9.894;2023-02-01T14:41:24;7.80;;;2.35;;
25946;SDS011;13745;51.470;9.894;2023-02-01T14:44:21;6.63;;;1.42;;
25946;SDS011;13745;51.470;9.894;2023-02-01T14:50:19;6.15;;;1.50;;
25946;SDS011;13745;51.470;9.894;2023-02-01T14:53:12;3.30;;;1.50;;
25946;SDS011;13745;51.470;9.894;2023-02-01T14:56:05;4.60;;;1.75;;
25946;SDS011;13745;51.470;9.894;2023-02-01T15:01:46;4.95;;;1.85;;
25946;SDS011;13745;51.470;9.894;2023-02-01T15:04:40;6.10;;;2.20;;
25946;SDS011;13745;51.470;9.894;2023-02-01T15:07:28;6.70;;;2.08;;
25946;SDS011;13745;51.470;9.894;2023-02-01T15:10:13;4.38;;;1.88;;
25946;SDS011;13745;51.470;9.894;2023-02-01T15:12:59;5.85;;;2.47;;
25946;SDS011;13745;51.470;9.894;2023-02-01T15:15:44;9.45;;;2.35;;
25946;SDS011;13745;51.470;9.894;2023-02-01T15:18:29;8.38;;;2.67;;
25946;SDS011;13745;51.470;9.894;2023-02-01T15:21:16;9.27;;;2.72;;
25946;SDS011;13745;51.470;9.894;2023-02-01T15:24:13;5.15;;;2.70;;
25946;SDS011;13745;51.470;9.894;2023-02-01T15:27:03;13.48;;;4.05;;
25946;SDS011;13745;51.470;9.894;2023-02-01T15:29:50;12.13;;;3.40;;
25946;SDS011;13745;51.470;9.894;2023-02-01T15:32:36;12.10;;;3.50;;
25946;SDS011;13745;51.470;9.894;2023-02-01T15:35:39;9.57;;;3.25;;
25946;SDS011;13745;51.470;9.894;2023-02-01T15:38:34;13.02;;;4.90;;
25946;SDS011;13745;51.470;9.894;2023-02-01T15:41:28;14.27;;;3.47;;
25946;SDS011;13745;51.470;9.894;2023-02-01T15:44:17;11.70;;;3.47;;
25946;SDS011;13745;51.470;9.894;2023-02-01T15:47:05;11.25;;;4.75;;
25946;SDS011;13745;51.470;9.894;2023-02-01T15:49:57;8.23;;;2.80;;
25946;SDS011;13745;51.470;9.894;2023-02-01T15:52:45;5.53;;;2.10;;
25946;SDS011;13745;51.470;9.894;2023-02-01T15:55:34;4.55;;;1.00;;
25946;SDS011;13745;51.470;9.894;2023-02-01T15:58:23;4.38;;;0.70;;
25946;SDS011;13745;51.470;9.894;2023-02-01T16:01:11;3.30;;;0.60;;
25946;SDS011;13745;51.470;9.894;2023-02-01T16:04:05;1.88;;;0.70;;
25946;SDS011;13745;51.470;9.894;2023-02-01T16:07:00;0.70;;;0.45;;
25946;SDS011;13745;51.470;9.894;2023-02-01T16:09:48;8.05;;;2.08;;
25946;SDS011;13745;51.470;9.894;2023-02-01T16:12:45;1.48;;;0.98;;
25946;SDS011;13745;51.470;9.894;2023-02-01T16:15:32;2.50;;;1.25;;
25946;SDS011;13745;51.470;9.894;2023-02-01T16:18:18;1.15;;;1.00;;
25946;SDS011;13745;51.470;9.894;2023-02-01T16:21:03;3.50;;;1.70;;
25946;SDS011;13745;51.470;9.894;2023-02-01T16:23:49;4.97;;;1.63;;
25946;SDS011;13745;51.470;9.894;2023-02-01T16:26:35;2.08;;;1.20;;
25946;SDS011;13745;51.470;9.894;2023-02-01T16:29:21;4.53;;;1.27;;
25946;SDS011;13745;51.470;9.894;2023-02-01T16:32:10;8.50;;;2.03;;
25946;SDS011;13745;51.470;9.894;2023-02-01T16:35:01;5.95;;;1.10;;
25946;SDS011;13745;51.470;9.894;2023-02-01T16:37:46;3.50;;;1.27;;
25946;SDS011;13745;51.470;9.894;2023-02-01T16:40:31;4.00;;;1.10;;
25946;SDS011;13745;51.470;9.894;2023-02-01T16:43:17;9.45;;;1.38;;
25946;SDS011;13745;51.470;9.894;2023-02-01T16:46:03;5.53;;;1.15;;
25946;SDS011;13745;51.470;9.894;2023-02-01T16:48:51;4.85;;;1.50;;
25946;SDS011;13745;51.470;9.894;2023-02-01T16:51:38;5.00;;;2.10;;
25946;SDS011;13745;51.470;9.894;2023-02-01T16:54:25;3.90;;;1.73;;
25946;SDS011;13745;51.470;9.894;2023-02-01T16:57:11;5.88;;;1.52;;
25946;SDS011;13745;51.470;9.894;2023-02-01T16:59:58;5.28;;;1.98;;
25946;SDS011;13745;51.470;9.894;2023-02-01T17:02:48;4.88;;;1.42;;
25946;SDS011;13745;51.470;9.894;2023-02-01T17:05:34;8.73;;;1.70;;
25946;SDS011;13745;51.470;9.894;2023-02-01T17:08:22;5.95;;;1.70;;
25946;SDS011;13745;51.470;9.894;2023-02-01T17:11:13;4.00;;;1.30;;
25946;SDS011;13745;51.470;9.894;2023-02-01T17:14:00;5.53;;;1.13;;
25946;SDS011;13745;51.470;9.894;2023-02-01T17:16:56;2.05;;;0.95;;